createdAt,value
2017-10-05T00:00:33.198Z,95.38
2017-10-05T00:03:00.715Z,96.44
2017-10-05T00:05:28.218Z,96.35
2017-10-05T00:07:55.724Z,96.09
2017-10-05T00:10:23.258Z,95.55
2017-10-05T00:12:50.788Z,93.93
2017-10-05T00:15:18.293Z,94.14
2017-10-05T00:17:45.803Z,94.96
2017-10-05T00:20:13.333Z,95.65
2017-10-05T00:22:40.839Z,95.74
2017-10-05T00:25:08.351Z,94.75
2017-10-05T00:27:35.867Z,94.42
2017-10-05T00:30:03.399Z,94.30
2017-10-05T00:32:30.925Z,94.52
2017-10-05T00:34:58.432Z,94.72
2017-10-05T00:37:25.943Z,95.79
2017-10-05T00:39:53.450Z,95.67
2017-10-05T00:42:20.972Z,95.19
2017-10-05T00:44:48.472Z,95.33
2017-10-05T00:47:15.984Z,94.99
2017-10-05T00:49:43.480Z,94.88
2017-10-05T00:52:10.984Z,94.83
2017-10-05T00:54:38.507Z,94.19
2017-10-05T00:57:06.019Z,94.62
2017-10-05T00:59:33.527Z,93.68
2017-10-05T01:02:01.064Z,93.63
2017-10-05T01:04:28.570Z,93.91
2017-10-05T01:06:56.070Z,94.29
2017-10-05T01:09:23.572Z,94.46
2017-10-05T01:11:51.120Z,94.32
2017-10-05T01:14:18.678Z,94.27
2017-10-05T01:16:46.243Z,93.29
2017-10-05T01:19:13.743Z,93.77
2017-10-05T01:21:41.269Z,95.11
2017-10-05T01:24:08.787Z,95.15
2017-10-05T01:26:36.390Z,94.05
2017-10-05T01:29:03.886Z,93.94
2017-10-05T01:31:31.387Z,94.28
2017-10-05T01:33:58.904Z,94.39
2017-10-05T01:36:26.429Z,93.62
2017-10-05T01:38:53.927Z,87.42
2017-10-05T01:41:21.435Z,92.59
2017-10-05T01:43:48.936Z,93.54
2017-10-05T01:46:16.446Z,94.34
2017-10-05T01:48:43.964Z,94.53
2017-10-05T01:51:11.465Z,94.10
2017-10-05T01:53:39.000Z,93.59
2017-10-05T01:56:06.503Z,91.92
2017-10-05T01:58:34.023Z,90.74
2017-10-05T02:01:01.638Z,89.45
2017-10-05T02:03:29.144Z,91.15
2017-10-05T02:05:56.650Z,91.58
2017-10-05T02:08:24.168Z,92.45
2017-10-05T02:10:51.695Z,92.74
2017-10-05T02:13:19.195Z,93.98
2017-10-05T02:15:46.704Z,91.07
2017-10-05T02:18:14.206Z,91.71
2017-10-05T02:20:41.710Z,90.18
2017-10-05T02:23:09.215Z,89.26
2017-10-05T02:25:36.738Z,88.14
2017-10-05T02:28:04.243Z,91.61
2017-10-05T02:30:31.746Z,91.40
2017-10-05T02:32:59.263Z,91.04
2017-10-05T02:35:26.785Z,87.95
2017-10-05T02:37:54.283Z,90.89
2017-10-05T02:40:21.767Z,89.73
2017-10-05T02:42:49.373Z,87.48
2017-10-05T02:45:16.888Z,85.48
2017-10-05T02:47:44.439Z,79.18
2017-10-05T02:50:11.943Z,78.12
2017-10-05T02:52:39.442Z,75.47
2017-10-05T02:55:06.964Z,72.14
2017-10-05T02:57:34.509Z,70.72
2017-10-05T03:00:02.032Z,68.37
2017-10-05T03:02:29.543Z,69.98
2017-10-05T03:04:57.083Z,68.02
2017-10-05T03:07:24.578Z,68.69
2017-10-05T03:09:52.108Z,65.99
2017-10-05T03:12:19.615Z,64.09
2017-10-05T03:14:47.111Z,64.97
2017-10-05T03:17:14.625Z,62.67
2017-10-05T03:19:42.195Z,64.14
2017-10-05T03:22:09.703Z,64.91
2017-10-05T03:24:37.208Z,64.80
2017-10-05T03:27:04.720Z,64.61
2017-10-05T03:29:32.227Z,62.82
2017-10-05T03:31:59.794Z,62.62
2017-10-05T03:34:27.313Z,63.43
2017-10-05T03:36:54.840Z,62.67
2017-10-05T03:39:22.340Z,65.42
2017-10-05T03:41:49.870Z,71.40
2017-10-05T03:44:17.367Z,71.77
2017-10-05T03:46:44.878Z,72.98
2017-10-05T03:49:12.389Z,76.37
2017-10-05T03:51:39.896Z,77.73
2017-10-05T03:54:07.677Z,79.62
2017-10-05T03:56:35.174Z,81.96
2017-10-05T03:59:02.764Z,72.79
2017-10-05T04:01:30.275Z,67.38
2017-10-05T04:03:57.766Z,68.83
2017-10-05T04:06:25.258Z,75.51
2017-10-05T04:08:52.777Z,76.66
2017-10-05T04:11:20.291Z,77.12
2017-10-05T04:13:47.792Z,81.09
2017-10-05T04:16:16.154Z,81.01
2017-10-05T04:18:43.646Z,84.09
2017-10-05T04:21:11.169Z,84.08
2017-10-05T04:23:39.568Z,83.21
2017-10-05T04:26:07.070Z,79.49
2017-10-05T04:28:34.578Z,78.64
2017-10-05T04:31:02.102Z,82.37
2017-10-05T04:33:29.631Z,82.63
2017-10-05T04:35:57.126Z,83.01
2017-10-05T04:38:24.632Z,83.09
2017-10-05T04:40:52.304Z,83.37
2017-10-05T04:43:19.858Z,83.98
2017-10-05T04:45:47.367Z,80.50
2017-10-05T04:48:14.868Z,81.85
2017-10-05T04:50:42.404Z,76.59
2017-10-05T04:53:09.915Z,77.28
2017-10-05T04:55:37.447Z,72.83
2017-10-05T04:58:04.969Z,71.45
2017-10-05T05:00:32.484Z,72.17
2017-10-05T05:03:00.012Z,75.12
2017-10-05T05:05:27.542Z,67.64
2017-10-05T05:07:55.090Z,67.85
2017-10-05T05:10:22.612Z,64.16
2017-10-05T05:12:50.109Z,64.17
2017-10-05T05:15:17.607Z,62.13
2017-10-05T05:17:45.107Z,60.76
2017-10-05T05:20:12.616Z,61.43
2017-10-05T05:22:40.114Z,58.68
2017-10-05T05:25:07.634Z,56.98
2017-10-05T05:27:36.509Z,57.40
2017-10-05T05:30:04.061Z,56.18
2017-10-05T05:32:31.570Z,56.33
2017-10-05T05:34:59.706Z,56.87
2017-10-05T05:37:29.762Z,56.42
2017-10-05T05:39:57.285Z,56.99
2017-10-05T05:42:24.801Z,56.80
2017-10-05T05:44:52.303Z,55.85
2017-10-05T05:47:19.832Z,55.56
2017-10-05T05:49:47.379Z,55.75
2017-10-05T05:52:14.888Z,56.82
2017-10-05T05:54:42.392Z,56.26
2017-10-05T05:57:09.896Z,57.60
2017-10-05T05:59:37.434Z,58.78
2017-10-05T06:02:05.083Z,58.13
2017-10-05T06:04:32.594Z,58.32
2017-10-05T06:07:00.108Z,58.74
2017-10-05T06:09:27.605Z,59.39
2017-10-05T06:11:55.117Z,59.86
2017-10-05T06:14:22.635Z,59.92
2017-10-05T06:16:55.286Z,60.72
2017-10-05T06:19:22.816Z,59.61
2017-10-05T06:21:50.328Z,60.14
2017-10-05T06:24:17.852Z,60.19
2017-10-05T06:26:45.370Z,59.72
2017-10-05T06:29:12.883Z,60.19
2017-10-05T06:31:40.400Z,59.40
2017-10-05T06:34:07.902Z,59.59
2017-10-05T06:36:35.426Z,59.66
2017-10-05T06:39:02.934Z,58.38
2017-10-05T06:41:30.447Z,58.62
2017-10-05T06:43:57.966Z,59.73
2017-10-05T06:46:25.470Z,59.55
2017-10-05T06:48:52.999Z,59.89
2017-10-05T06:51:20.546Z,59.29
2017-10-05T06:53:48.081Z,59.16
2017-10-05T06:56:15.620Z,60.01
2017-10-05T06:58:43.135Z,59.50
2017-10-05T07:01:10.666Z,59.48
2017-10-05T07:03:38.248Z,59.48
2017-10-05T07:06:05.746Z,60.32
2017-10-05T07:08:33.254Z,62.06
2017-10-05T07:11:00.767Z,62.24
2017-10-05T07:13:28.294Z,60.30
2017-10-05T07:15:55.814Z,61.03
2017-10-05T07:18:23.325Z,60.82
2017-10-05T07:20:50.981Z,60.85
2017-10-05T07:23:18.518Z,59.66
2017-10-05T07:25:46.030Z,59.65
2017-10-05T07:28:13.567Z,57.43
2017-10-05T07:30:41.078Z,57.42
2017-10-05T07:33:08.601Z,56.29
2017-10-05T07:35:36.124Z,57.33
2017-10-05T07:38:03.646Z,56.32
2017-10-05T07:40:31.155Z,54.21
2017-10-05T07:42:58.660Z,53.06
2017-10-05T07:45:26.183Z,53.33
2017-10-05T07:47:53.703Z,52.71
2017-10-05T07:50:21.224Z,52.71
2017-10-05T07:52:48.840Z,52.48
2017-10-05T07:55:16.351Z,50.78
2017-10-05T07:57:43.878Z,49.56
2017-10-05T08:00:11.413Z,47.29
2017-10-05T08:02:38.911Z,45.54
2017-10-05T08:05:06.408Z,44.37
2017-10-05T08:07:33.904Z,42.42
2017-10-05T08:10:01.432Z,40.05
2017-10-05T08:12:28.941Z,40.48
2017-10-05T08:14:56.483Z,37.54
2017-10-05T08:17:23.983Z,37.26
2017-10-05T08:19:51.494Z,37.69
2017-10-05T08:22:19.027Z,34.57
2017-10-05T08:24:46.556Z,35.27
2017-10-05T08:27:14.060Z,36.43
2017-10-05T08:29:41.579Z,33.88
2017-10-05T08:32:09.098Z,30.43
2017-10-05T08:34:36.624Z,31.26
2017-10-05T08:37:04.185Z,30.44
2017-10-05T08:39:31.738Z,29.87
2017-10-05T08:41:59.247Z,28.86
2017-10-05T08:44:26.752Z,27.41
2017-10-05T08:46:54.272Z,30.71
2017-10-05T08:49:21.805Z,28.29
2017-10-05T08:51:49.316Z,26.62
2017-10-05T08:54:16.824Z,27.08
2017-10-05T08:56:44.331Z,28.40
2017-10-05T08:59:11.838Z,24.24
2017-10-05T09:01:39.350Z,29.08
2017-10-05T09:04:06.887Z,27.09
2017-10-05T09:06:34.394Z,28.19
2017-10-05T09:09:01.918Z,27.83
2017-10-05T09:11:29.432Z,26.65
2017-10-05T09:13:57.004Z,25.38
2017-10-05T09:16:24.505Z,29.07
2017-10-05T09:18:52.024Z,28.41
2017-10-05T09:21:19.528Z,29.83
2017-10-05T09:23:47.079Z,28.09
2017-10-05T09:26:14.597Z,26.24
2017-10-05T09:28:42.199Z,27.50
2017-10-05T09:31:09.741Z,25.65
2017-10-05T09:33:37.257Z,24.81
2017-10-05T09:36:04.759Z,26.25
2017-10-05T09:38:32.274Z,26.62
2017-10-05T09:40:59.786Z,24.78
2017-10-05T09:43:27.287Z,25.46
2017-10-05T09:45:54.842Z,26.41
2017-10-05T09:48:22.376Z,24.91
2017-10-05T09:50:49.891Z,25.15
2017-10-05T09:53:17.433Z,23.99
2017-10-05T09:55:44.958Z,23.85
2017-10-05T09:58:12.470Z,24.08
2017-10-05T10:00:40.015Z,25.49
2017-10-05T10:03:07.521Z,22.80
2017-10-05T10:05:35.051Z,22.67
2017-10-05T10:08:02.559Z,22.31
2017-10-05T10:10:30.087Z,21.91
2017-10-05T10:12:57.619Z,22.23
2017-10-05T10:15:25.135Z,22.32
2017-10-05T10:17:52.655Z,22.25
2017-10-05T10:20:20.176Z,23.26
2017-10-05T10:22:47.700Z,21.04
2017-10-05T10:25:15.207Z,20.64
2017-10-05T10:27:42.723Z,20.22
2017-10-05T10:30:10.234Z,21.59
2017-10-05T10:32:37.762Z,19.75
2017-10-05T10:35:05.360Z,22.24
2017-10-05T10:37:32.880Z,18.73
2017-10-05T10:40:00.382Z,21.10
2017-10-05T10:42:27.901Z,21.41
2017-10-05T10:44:55.412Z,19.88
2017-10-05T10:47:22.923Z,19.65
2017-10-05T10:49:50.468Z,20.58
2017-10-05T10:52:17.986Z,20.28
2017-10-05T10:54:45.504Z,20.43
2017-10-05T10:57:13.024Z,20.80
2017-10-05T10:59:40.553Z,19.69
2017-10-05T11:02:08.066Z,20.43
2017-10-05T11:04:35.571Z,17.93
2017-10-05T11:07:03.095Z,20.13
2017-10-05T11:09:30.592Z,19.37
2017-10-05T11:11:58.094Z,17.93
2017-10-05T11:14:25.616Z,18.82
2017-10-05T11:16:53.119Z,19.75
2017-10-05T11:19:20.631Z,21.42
2017-10-05T11:21:48.158Z,19.33
2017-10-05T11:24:15.795Z,19.89
2017-10-05T11:26:43.590Z,18.87
2017-10-05T11:29:11.122Z,19.80
2017-10-05T11:31:38.652Z,19.13
2017-10-05T11:34:06.264Z,20.07
2017-10-05T11:36:33.782Z,21.15
2017-10-05T11:39:01.303Z,21.66
2017-10-05T11:41:28.813Z,20.29
2017-10-05T11:43:56.338Z,21.10
2017-10-05T11:46:23.863Z,20.64
2017-10-05T11:48:51.389Z,20.87
2017-10-05T11:51:18.900Z,23.19
2017-10-05T11:53:46.417Z,23.65
2017-10-05T11:56:13.954Z,24.79
2017-10-05T11:58:41.472Z,22.31
2017-10-05T12:01:08.976Z,21.52
2017-10-05T12:03:36.485Z,20.47
2017-10-05T12:06:03.998Z,22.23
2017-10-05T12:08:31.547Z,20.06
2017-10-05T12:10:59.066Z,22.51
2017-10-05T12:13:26.682Z,20.77
2017-10-05T12:15:54.207Z,20.44
2017-10-05T12:18:21.723Z,20.84
2017-10-05T12:20:49.245Z,21.39
2017-10-05T12:23:16.806Z,23.91
2017-10-05T12:25:44.320Z,22.58
2017-10-05T12:28:11.829Z,22.08
2017-10-05T12:30:46.876Z,22.83
2017-10-05T12:33:14.390Z,21.86
2017-10-05T12:35:41.969Z,22.37
2017-10-05T12:38:09.497Z,23.01
2017-10-05T12:40:37.015Z,24.52
2017-10-05T12:43:04.526Z,24.62
2017-10-05T12:45:32.034Z,25.13
2017-10-05T12:47:59.556Z,24.42
2017-10-05T12:50:27.106Z,23.84
2017-10-05T12:52:54.624Z,22.20
2017-10-05T12:55:22.135Z,22.92
2017-10-05T12:57:49.688Z,22.61
2017-10-05T13:00:17.224Z,24.39
2017-10-05T13:02:44.736Z,26.66
2017-10-05T13:05:12.241Z,26.46
2017-10-05T13:07:39.751Z,25.17
2017-10-05T13:10:07.280Z,28.63
2017-10-05T13:12:34.791Z,28.60
2017-10-05T13:15:02.304Z,29.19
2017-10-05T13:17:29.846Z,26.03
2017-10-05T13:19:57.351Z,27.21
2017-10-05T13:22:24.857Z,25.96
2017-10-05T13:24:52.367Z,27.77
2017-10-05T13:27:19.880Z,28.91
2017-10-05T13:29:47.396Z,29.66
2017-10-05T13:32:15.004Z,29.54
2017-10-05T13:34:42.530Z,29.56
2017-10-05T13:37:10.049Z,30.62
2017-10-05T13:39:37.589Z,31.82
2017-10-05T13:42:05.100Z,31.65
2017-10-05T13:44:32.636Z,32.03
2017-10-05T13:47:00.163Z,32.24
2017-10-05T13:49:27.672Z,32.83
2017-10-05T13:51:55.194Z,32.92
2017-10-05T13:54:22.735Z,32.56
2017-10-05T13:56:50.244Z,33.38
2017-10-05T13:59:17.781Z,34.19
2017-10-05T14:01:45.304Z,35.50
2017-10-05T14:04:12.810Z,34.36
2017-10-05T14:06:40.344Z,30.46
2017-10-05T14:09:07.863Z,30.99
2017-10-05T14:11:35.416Z,34.14
2017-10-05T14:14:02.919Z,33.52
2017-10-05T14:16:30.424Z,34.48
2017-10-05T14:18:57.928Z,35.11
2017-10-05T14:21:25.441Z,36.67
2017-10-05T14:23:52.972Z,38.32
2017-10-05T14:26:20.486Z,39.07
2017-10-05T14:28:48.016Z,40.44
2017-10-05T14:31:15.535Z,41.96
2017-10-05T14:33:43.063Z,43.49
2017-10-05T14:36:10.609Z,43.56
2017-10-05T14:38:38.264Z,43.69
2017-10-05T14:41:05.767Z,45.08
2017-10-05T14:43:33.287Z,45.73
2017-10-05T14:46:00.800Z,46.55
2017-10-05T14:48:28.307Z,46.94
2017-10-05T14:50:55.883Z,47.92
2017-10-05T14:53:23.404Z,47.65
2017-10-05T14:55:50.934Z,48.59
2017-10-05T14:58:18.452Z,47.83
2017-10-05T15:00:45.958Z,49.24
2017-10-05T15:03:13.484Z,49.64
2017-10-05T15:05:41.006Z,49.75
2017-10-05T15:08:08.545Z,49.68
2017-10-05T15:10:36.055Z,49.15
2017-10-05T15:13:03.550Z,50.09
2017-10-05T15:15:31.056Z,50.19
2017-10-05T15:17:58.584Z,52.01
2017-10-05T15:20:26.243Z,55.13
2017-10-05T15:22:53.764Z,55.61
2017-10-05T15:25:21.300Z,56.11
2017-10-05T15:27:48.818Z,57.20
2017-10-05T15:30:16.368Z,57.85
2017-10-05T15:32:43.898Z,58.40
2017-10-05T15:35:11.422Z,58.45
2017-10-05T15:37:39.035Z,60.10
2017-10-05T15:40:06.555Z,61.24
2017-10-05T15:42:34.072Z,63.01
2017-10-05T15:45:01.579Z,68.79
2017-10-05T15:47:29.137Z,73.06
2017-10-05T15:49:56.640Z,74.16
2017-10-05T15:52:24.196Z,74.06
2017-10-05T15:54:51.712Z,77.13
2017-10-05T15:57:19.226Z,79.11
2017-10-05T15:59:46.751Z,79.45
2017-10-05T16:02:14.315Z,80.47
2017-10-05T16:04:41.814Z,80.88
2017-10-05T16:07:09.376Z,80.65
2017-10-05T16:09:36.895Z,81.71
2017-10-05T16:12:04.405Z,84.67
2017-10-05T16:14:32.273Z,83.78
2017-10-05T16:16:59.789Z,83.68
2017-10-05T16:19:27.305Z,81.51
2017-10-05T16:21:54.846Z,85.31
2017-10-05T16:24:22.507Z,85.12
2017-10-05T16:26:50.038Z,85.67
2017-10-05T16:29:17.582Z,87.25
2017-10-05T16:31:45.095Z,87.26
2017-10-05T16:34:12.595Z,86.94
2017-10-05T16:36:40.115Z,89.28
2017-10-05T16:39:07.631Z,89.08
2017-10-05T16:41:35.154Z,89.07
2017-10-05T16:44:02.688Z,90.06
2017-10-05T16:46:30.202Z,92.47
2017-10-05T16:48:57.736Z,91.81
2017-10-05T16:51:25.257Z,92.18
2017-10-05T16:53:52.771Z,89.80
2017-10-05T16:56:20.279Z,89.67
2017-10-05T16:58:47.806Z,89.68
2017-10-05T17:01:15.351Z,90.55
2017-10-05T17:03:42.934Z,90.60
2017-10-05T17:06:10.451Z,92.47
2017-10-05T17:08:37.959Z,90.39
2017-10-05T17:11:05.494Z,90.66
2017-10-05T17:13:33.044Z,88.93
2017-10-05T17:16:00.540Z,91.78
2017-10-05T17:18:28.058Z,91.79
2017-10-05T17:20:55.644Z,91.56
2017-10-05T17:23:23.180Z,90.93
2017-10-05T17:25:50.707Z,92.36
2017-10-05T17:28:18.238Z,92.27
2017-10-05T17:30:45.779Z,92.42
2017-10-05T17:33:13.306Z,92.88
2017-10-05T17:35:40.896Z,93.62
2017-10-05T17:38:08.420Z,93.70
2017-10-05T17:40:35.941Z,93.61
2017-10-05T17:43:03.468Z,93.19
2017-10-05T17:45:31.003Z,93.80
2017-10-05T17:47:58.517Z,93.91
2017-10-05T17:50:26.065Z,94.26
2017-10-05T17:52:53.640Z,93.78
2017-10-05T17:55:21.215Z,95.17
2017-10-05T17:57:48.749Z,95.19
2017-10-05T18:00:16.267Z,96.46
2017-10-05T18:02:43.843Z,96.67
2017-10-05T18:05:11.700Z,95.83
2017-10-05T18:07:39.382Z,94.83
2017-10-05T18:10:07.252Z,91.30
2017-10-05T18:12:35.467Z,92.08
2017-10-05T18:15:03.856Z,91.83
2017-10-05T18:17:31.403Z,91.48
2017-10-05T18:19:58.908Z,92.92
2017-10-05T18:22:26.603Z,93.44
2017-10-05T18:24:54.137Z,94.45
2017-10-05T18:27:21.778Z,93.24
2017-10-05T18:29:49.282Z,92.86
2017-10-05T18:32:17.744Z,93.07
2017-10-05T18:34:45.312Z,92.76
2017-10-05T18:37:12.855Z,92.33
2017-10-05T18:39:40.378Z,92.56
2017-10-05T18:42:07.892Z,93.56
2017-10-05T18:44:35.419Z,92.99
2017-10-05T18:47:02.970Z,93.52
2017-10-05T18:49:30.511Z,93.05
2017-10-05T18:51:58.060Z,93.63
2017-10-05T18:54:25.624Z,94.53
2017-10-05T18:56:53.244Z,92.79
2017-10-05T18:59:20.777Z,93.94
2017-10-05T19:01:48.352Z,93.47
2017-10-05T19:04:15.864Z,93.68
2017-10-05T19:06:43.379Z,93.88
2017-10-05T19:09:10.914Z,93.71
2017-10-05T19:11:38.503Z,93.12
2017-10-05T19:14:06.094Z,92.38
2017-10-05T19:16:33.656Z,92.99
2017-10-05T19:19:01.220Z,92.47
2017-10-05T19:21:28.755Z,92.63
2017-10-05T19:23:56.268Z,93.10
2017-10-05T19:26:23.925Z,93.13
2017-10-05T19:28:51.494Z,92.66
2017-10-05T19:31:19.003Z,92.62
2017-10-05T19:33:46.641Z,94.04
2017-10-05T19:36:14.159Z,93.96
2017-10-05T19:38:41.686Z,93.05
2017-10-05T19:41:09.220Z,92.02
2017-10-05T19:43:36.818Z,91.75
2017-10-05T19:46:04.375Z,91.53
2017-10-05T19:48:31.931Z,94.42
2017-10-05T19:50:59.444Z,93.93
2017-10-05T19:53:27.021Z,94.14
2017-10-05T19:55:54.716Z,94.18
2017-10-05T19:58:22.236Z,94.81
2017-10-05T20:00:49.820Z,94.33
2017-10-05T20:03:17.354Z,95.34
2017-10-05T20:05:44.890Z,95.61
2017-10-05T20:08:12.419Z,96.79
2017-10-05T20:10:39.936Z,95.12
2017-10-05T20:13:07.526Z,95.22
2017-10-05T20:15:35.119Z,95.94
2017-10-05T20:18:08.227Z,96.38
2017-10-05T20:20:50.262Z,95.66
2017-10-05T20:26:24.710Z,97.32
2017-10-05T20:28:53.700Z,97.94
2017-10-05T20:31:26.923Z,97.91
2017-10-05T20:33:54.465Z,95.46
2017-10-05T20:36:22.000Z,95.78
2017-10-05T20:38:49.528Z,96.56
2017-10-05T20:41:17.069Z,97.73
2017-10-05T20:43:44.575Z,98.72
2017-10-05T20:46:12.099Z,99.06
2017-10-05T20:48:39.610Z,99.49
2017-10-05T20:51:07.115Z,99.84
2017-10-05T20:53:34.653Z,99.71
2017-10-05T20:56:02.160Z,98.87
2017-10-05T20:58:29.692Z,98.03
2017-10-05T21:00:57.200Z,98.35
2017-10-05T21:03:24.725Z,98.09
2017-10-05T21:05:52.303Z,98.22
2017-10-05T21:08:19.922Z,98.41
2017-10-05T21:10:47.424Z,97.56
2017-10-05T21:13:14.952Z,98.31
2017-10-05T21:15:42.463Z,98.16
2017-10-05T21:18:10.014Z,98.59
2017-10-05T21:20:37.565Z,98.88
2017-10-05T21:23:05.062Z,98.68
2017-10-05T21:25:32.602Z,98.43
2017-10-05T21:28:00.140Z,98.62
2017-10-05T21:30:27.666Z,98.69
2017-10-05T21:32:55.177Z,98.81
2017-10-05T21:35:22.689Z,98.91
2017-10-05T21:37:50.223Z,99.61
2017-10-05T21:40:17.914Z,99.14
2017-10-05T21:42:45.482Z,98.76
2017-10-05T21:45:13.026Z,98.91
2017-10-05T21:47:40.559Z,98.98
2017-10-05T21:50:08.067Z,98.91
2017-10-05T21:52:35.614Z,98.42
2017-10-05T21:55:03.174Z,98.83
2017-10-05T21:57:30.730Z,98.57
2017-10-05T21:59:58.292Z,98.04
2017-10-05T22:02:25.956Z,99.26
2017-10-05T22:04:53.502Z,100.00
2017-10-05T22:07:21.035Z,99.91
2017-10-05T22:09:48.584Z,99.10
2017-10-05T22:12:16.291Z,98.47
2017-10-05T22:14:43.849Z,97.68
2017-10-05T22:17:11.405Z,97.69
2017-10-05T22:19:38.969Z,98.47
2017-10-05T22:22:06.539Z,98.66
2017-10-05T22:24:34.092Z,98.46
2017-10-05T22:27:01.635Z,98.07
2017-10-05T22:29:29.191Z,98.54
2017-10-05T22:31:56.768Z,98.54
2017-10-05T22:34:24.305Z,97.68
2017-10-05T22:36:51.854Z,96.59
2017-10-05T22:39:19.383Z,97.28
2017-10-05T22:41:46.953Z,97.56
2017-10-05T22:44:14.494Z,96.89
2017-10-05T22:46:42.029Z,96.97
2017-10-05T22:49:09.564Z,96.44
2017-10-05T22:51:37.121Z,96.25
2017-10-05T22:54:04.661Z,97.22
2017-10-05T22:56:32.194Z,98.35
2017-10-05T22:58:59.737Z,98.42
2017-10-05T23:01:27.274Z,99.64
2017-10-05T23:03:54.808Z,99.59
2017-10-05T23:06:22.345Z,99.54
2017-10-05T23:08:49.879Z,99.32
2017-10-05T23:11:17.508Z,99.55
2017-10-05T23:13:45.052Z,99.65
2017-10-05T23:16:12.594Z,99.12
2017-10-05T23:18:40.173Z,98.83
2017-10-05T23:21:07.713Z,97.86
2017-10-05T23:23:35.256Z,98.05
2017-10-05T23:26:02.808Z,97.44
2017-10-05T23:28:30.347Z,97.03
2017-10-05T23:30:57.898Z,97.52
2017-10-05T23:33:25.454Z,98.58
2017-10-05T23:35:53.009Z,99.17
2017-10-05T23:38:20.544Z,99.60
2017-10-05T23:40:48.088Z,99.60
2017-10-05T23:43:15.639Z,97.31
2017-10-05T23:45:43.171Z,98.15
2017-10-05T23:48:10.712Z,98.31
2017-10-05T23:50:38.260Z,98.19
2017-10-05T23:53:05.803Z,97.58
2017-10-05T23:55:33.417Z,97.63
2017-10-05T23:58:00.953Z,97.78
